createdAt,value
2023-01-12T00:00:34.777Z,5.97
2023-01-12T00:03:20.019Z,6.10
2023-01-12T00:05:50.817Z,6.55
2023-01-12T00:08:19.941Z,5.80
2023-01-12T00:10:49.267Z,6.53
2023-01-12T00:13:18.347Z,5.32
2023-01-12T00:16:01.579Z,6.13
2023-01-12T00:18:30.669Z,5.80
2023-01-12T00:21:01.384Z,6.57
2023-01-12T00:23:30.537Z,6.13
2023-01-12T00:25:59.867Z,5.87
2023-01-12T00:28:29.034Z,6.38
2023-01-12T00:31:02.519Z,6.28
2023-01-12T00:33:31.746Z,5.38
2023-01-12T00:36:05.775Z,5.67
2023-01-12T00:38:37.095Z,5.03
2023-01-12T00:41:07.441Z,4.75
2023-01-12T00:43:54.487Z,5.25
2023-01-12T00:46:31.499Z,4.95
2023-01-12T00:49:00.928Z,4.82
2023-01-12T00:51:31.593Z,5.20
2023-01-12T00:56:34.219Z,5.00
2023-01-12T00:59:03.415Z,4.60
2023-01-12T01:01:33.395Z,5.03
2023-01-12T01:04:02.772Z,5.53
2023-01-12T01:06:33.547Z,5.28
2023-01-12T01:09:02.679Z,5.57
2023-01-12T01:11:32.073Z,5.33
2023-01-12T01:14:01.855Z,5.72
2023-01-12T01:16:31.455Z,5.65
2023-01-12T01:19:01.381Z,6.60
2023-01-12T01:21:32.233Z,6.93
2023-01-12T01:24:01.653Z,6.95
2023-01-12T01:26:31.954Z,6.57
2023-01-12T01:29:01.099Z,6.28
2023-01-12T01:31:30.502Z,7.53
2023-01-12T01:33:59.653Z,6.38
2023-01-12T01:36:29.203Z,6.27
2023-01-12T01:38:59.795Z,6.78
2023-01-12T01:41:31.425Z,5.88
2023-01-12T01:44:03.790Z,6.65
2023-01-12T01:46:41.347Z,6.95
2023-01-12T01:49:31.427Z,6.93
2023-01-12T01:54:38.810Z,6.28
2023-01-12T01:57:10.199Z,6.50
2023-01-12T01:59:46.816Z,6.65
2023-01-12T02:02:17.391Z,6.47
2023-01-12T02:04:47.226Z,6.97
2023-01-12T02:07:16.877Z,6.75
2023-01-12T02:09:47.339Z,6.73
2023-01-12T02:12:34.285Z,6.03
2023-01-12T02:15:21.034Z,6.90
2023-01-12T02:18:10.707Z,6.43
2023-01-12T02:20:50.705Z,6.67
2023-01-12T02:23:59.542Z,6.68
2023-01-12T02:27:05.332Z,6.47
2023-01-12T02:30:13.989Z,7.03
2023-01-12T02:32:55.383Z,5.97
2023-01-12T02:35:30.179Z,7.35
2023-01-12T02:38:08.777Z,6.68
2023-01-12T02:40:45.325Z,6.25
2023-01-12T02:43:19.793Z,6.20
2023-01-12T02:45:55.864Z,5.60
2023-01-12T02:48:31.508Z,6.55
2023-01-12T02:51:09.161Z,6.40
2023-01-12T02:53:43.469Z,6.60
2023-01-12T02:56:19.721Z,6.85
2023-01-12T02:58:52.804Z,5.38
2023-01-12T03:01:23.848Z,5.10
2023-01-12T03:04:00.333Z,5.07
2023-01-12T03:06:42.595Z,5.47
2023-01-12T03:09:12.954Z,5.82
2023-01-12T03:11:44.322Z,5.63
2023-01-12T03:14:16.152Z,5.65
2023-01-12T03:16:45.586Z,5.72
2023-01-12T03:19:21.900Z,5.78
2023-01-12T03:21:56.321Z,6.20
2023-01-12T03:24:28.999Z,6.10
2023-01-12T03:27:03.153Z,6.40
2023-01-12T03:29:38.076Z,8.00
2023-01-12T03:32:08.093Z,7.13
2023-01-12T03:34:40.012Z,7.45
2023-01-12T03:37:13.076Z,7.60
2023-01-12T03:39:51.816Z,7.72
2023-01-12T03:42:28.941Z,8.43
2023-01-12T03:45:08.828Z,7.55
2023-01-12T03:47:41.675Z,7.50
2023-01-12T03:50:17.800Z,7.68
2023-01-12T03:52:49.030Z,7.10
2023-01-12T03:55:22.899Z,7.68
2023-01-12T03:57:53.711Z,7.30
2023-01-12T04:00:25.304Z,6.57
2023-01-12T04:03:04.906Z,7.25
2023-01-12T04:05:35.376Z,7.45
2023-01-12T04:08:04.913Z,6.70
2023-01-12T04:10:33.944Z,6.72
2023-01-12T04:13:02.380Z,7.27
2023-01-12T04:15:31.396Z,6.90
2023-01-12T04:18:00.798Z,8.10
2023-01-12T04:20:29.803Z,7.15
2023-01-12T04:22:59.590Z,7.27
2023-01-12T04:25:29.222Z,7.30
2023-01-12T04:28:00.970Z,6.65
2023-01-12T04:30:31.673Z,6.75
2023-01-12T04:33:02.388Z,6.53
2023-01-12T04:35:31.475Z,6.28
2023-01-12T04:38:07.439Z,6.75
2023-01-12T04:40:36.781Z,6.00
2023-01-12T04:43:08.453Z,6.00
2023-01-12T04:45:39.815Z,6.25
2023-01-12T04:48:11.278Z,6.40
2023-01-12T04:50:41.962Z,5.82
2023-01-12T04:53:14.137Z,6.40
2023-01-12T04:55:44.618Z,6.43
2023-01-12T04:58:14.030Z,5.53
2023-01-12T05:00:43.021Z,5.50
2023-01-12T05:03:13.922Z,5.47
2023-01-12T05:05:43.451Z,6.25
2023-01-12T05:08:31.932Z,5.43
2023-01-12T05:11:02.601Z,5.70
2023-01-12T05:13:33.040Z,5.15
2023-01-12T05:16:11.023Z,5.63
2023-01-12T05:18:40.620Z,5.55
2023-01-12T05:21:09.724Z,6.45
2023-01-12T05:23:40.688Z,6.17
2023-01-12T05:26:10.661Z,6.03
2023-01-12T05:31:11.701Z,5.65
2023-01-12T05:33:42.917Z,6.22
2023-01-12T05:36:14.080Z,6.13
2023-01-12T05:38:44.971Z,5.68
2023-01-12T05:41:14.883Z,6.22
2023-01-12T05:43:54.799Z,6.57
2023-01-12T05:46:25.731Z,6.05
2023-01-12T05:48:56.261Z,5.80
2023-01-12T05:51:27.150Z,5.40
2023-01-12T05:53:58.098Z,5.63
2023-01-12T05:56:28.812Z,6.15
2023-01-12T05:59:00.016Z,6.10
2023-01-12T06:01:30.292Z,7.93
2023-01-12T06:04:02.059Z,7.50
2023-01-12T06:06:32.351Z,6.30
2023-01-12T06:09:03.882Z,6.72
2023-01-12T06:11:50.421Z,6.25
2023-01-12T06:14:20.081Z,7.10
2023-01-12T06:16:49.164Z,6.65
2023-01-12T06:19:18.526Z,6.83
2023-01-12T06:21:47.638Z,6.13
2023-01-12T06:24:18.337Z,7.30
2023-01-12T06:26:47.547Z,8.00
2023-01-12T06:29:16.882Z,8.50
2023-01-12T06:31:45.960Z,7.40
2023-01-12T06:34:15.300Z,6.97
2023-01-12T06:36:44.391Z,7.28
2023-01-12T06:39:14.475Z,7.97
2023-01-12T06:42:02.382Z,7.78
2023-01-12T06:44:31.823Z,8.15
2023-01-12T06:47:02.970Z,7.90
2023-01-12T06:49:32.394Z,7.10
2023-01-12T06:52:01.392Z,7.28
2023-01-12T06:54:31.335Z,8.13
2023-01-12T06:57:01.928Z,7.32
2023-01-12T06:59:31.360Z,7.75
2023-01-12T07:02:00.450Z,7.60
2023-01-12T07:04:30.203Z,8.70
2023-01-12T07:06:59.355Z,8.63
2023-01-12T07:09:28.685Z,8.80
2023-01-12T07:11:57.682Z,8.95
2023-01-12T07:14:28.245Z,8.73
2023-01-12T07:19:26.112Z,7.13
2023-01-12T07:21:55.135Z,7.43
2023-01-12T07:24:24.379Z,6.28
2023-01-12T07:26:53.874Z,7.07
2023-01-12T07:29:23.110Z,7.88
2023-01-12T07:31:53.650Z,7.10
2023-01-12T07:34:23.182Z,6.50
2023-01-12T07:36:52.462Z,6.63
2023-01-12T07:39:21.663Z,6.93
2023-01-12T07:42:08.269Z,6.88
2023-01-12T07:44:40.245Z,7.03
2023-01-12T07:47:10.776Z,6.07
2023-01-12T07:49:40.093Z,6.40
2023-01-12T07:52:11.574Z,6.38
2023-01-12T07:54:41.273Z,6.47
2023-01-12T07:57:12.058Z,6.00
2023-01-12T07:59:41.276Z,5.95
2023-01-12T08:06:24.966Z,4.63
2023-01-12T08:08:55.462Z,5.43
2023-01-12T08:11:25.160Z,5.70
2023-01-12T08:13:56.413Z,4.93
2023-01-12T08:16:30.632Z,5.03
2023-01-12T08:19:04.883Z,5.00
2023-01-12T08:21:57.450Z,4.65
2023-01-12T08:32:37.510Z,5.45
2023-01-12T08:35:09.075Z,4.70
2023-01-12T08:37:38.560Z,4.65
2023-01-12T08:40:08.869Z,4.25
2023-01-12T08:42:38.167Z,4.43
2023-01-12T08:45:08.290Z,4.00
2023-01-12T08:48:02.613Z,3.80
2023-01-12T08:50:32.952Z,3.50
2023-01-12T08:53:02.259Z,3.53
2023-01-12T08:55:31.174Z,4.72
2023-01-12T08:58:00.412Z,4.17
2023-01-12T09:01:28.986Z,4.22
2023-01-12T09:03:58.994Z,3.97
2023-01-12T09:11:21.181Z,3.70
2023-01-12T09:13:50.607Z,3.65
2023-01-12T09:16:20.792Z,3.97
2023-01-12T09:18:50.132Z,4.07
2023-01-12T09:21:22.031Z,3.58
2023-01-12T09:23:52.659Z,3.35
2023-01-12T09:28:53.042Z,3.10
2023-01-12T09:31:23.879Z,3.60
2023-01-12T09:33:53.564Z,3.58
2023-01-12T09:36:24.369Z,3.33
2023-01-12T09:38:54.120Z,3.05
2023-01-12T09:41:44.573Z,4.03
2023-01-12T09:44:36.812Z,3.58
2023-01-12T09:47:09.849Z,4.63
2023-01-12T09:50:45.249Z,4.18
2023-01-12T09:53:21.409Z,4.13
2023-01-12T10:00:03.619Z,4.75
2023-01-12T10:02:46.585Z,3.45
2023-01-12T10:05:38.871Z,3.45
2023-01-12T10:08:17.099Z,4.38
2023-01-12T10:20:18.457Z,4.10
2023-01-12T10:26:16.789Z,3.67
2023-01-12T10:28:48.828Z,3.55
2023-01-12T10:34:49.364Z,3.67
2023-01-12T10:37:19.885Z,4.03
2023-01-12T10:41:03.453Z,3.75
2023-01-12T10:47:36.710Z,3.70
2023-01-12T10:51:16.151Z,3.85
2023-01-12T10:58:42.151Z,3.78
2023-01-12T11:05:46.758Z,4.22
2023-01-12T11:13:23.513Z,3.90
2023-01-12T11:16:02.885Z,4.85
2023-01-12T11:46:48.767Z,4.30
2023-01-12T11:49:24.483Z,4.53
2023-01-12T11:51:57.341Z,4.68
2023-01-12T11:56:05.873Z,5.07
2023-01-12T11:59:27.544Z,4.53
2023-01-12T12:07:37.688Z,4.28
2023-01-12T12:15:16.875Z,4.30
2023-01-12T12:21:47.765Z,3.75
2023-01-12T12:24:50.902Z,4.50
2023-01-12T12:27:35.745Z,4.05
2023-01-12T12:30:32.875Z,4.32
2023-01-12T12:34:18.764Z,4.25
2023-01-12T12:36:54.819Z,4.13
2023-01-12T12:44:47.459Z,3.83
2023-01-12T12:47:48.972Z,4.22
2023-01-12T13:16:04.015Z,3.25
2023-01-12T13:30:40.665Z,3.17
2023-01-12T13:37:53.112Z,3.95
2023-01-12T13:40:31.021Z,3.35
2023-01-12T13:43:19.780Z,3.13
2023-01-12T13:45:55.369Z,3.60
2023-01-12T13:48:27.109Z,3.25
2023-01-12T13:51:47.036Z,3.67
2023-01-12T14:01:30.228Z,3.08
2023-01-12T14:13:40.955Z,3.40
2023-01-12T14:19:29.216Z,3.70
2023-01-12T14:26:49.570Z,3.50
2023-01-12T14:34:28.721Z,3.80
2023-01-12T14:36:58.093Z,4.60
2023-01-12T14:39:30.659Z,4.10
2023-01-12T14:42:17.013Z,3.58
2023-01-12T14:45:12.899Z,3.60
2023-01-12T14:47:42.317Z,3.17
2023-01-12T14:50:23.149Z,3.17
2023-01-12T14:52:53.637Z,3.20
2023-01-12T14:55:38.223Z,3.22
2023-01-12T14:58:17.414Z,3.85
2023-01-12T15:00:47.980Z,3.20
2023-01-12T15:05:59.198Z,3.60
2023-01-12T15:08:30.680Z,3.13
2023-01-12T15:19:19.166Z,3.10
2023-01-12T15:22:07.383Z,3.40
2023-01-12T15:24:54.880Z,3.05
2023-01-12T15:28:39.780Z,3.17
2023-01-12T15:31:27.919Z,3.33
2023-01-12T15:33:58.495Z,2.70
2023-01-12T15:36:27.598Z,2.92
2023-01-12T15:38:58.585Z,2.88
2023-01-12T15:41:44.101Z,3.20
2023-01-12T15:44:14.935Z,2.80
2023-01-12T15:46:44.644Z,3.33
2023-01-12T15:49:15.626Z,3.28
2023-01-12T15:51:48.171Z,3.33
2023-01-12T15:54:21.656Z,3.42
2023-01-12T15:56:51.005Z,2.88
2023-01-12T15:59:20.728Z,4.07
2023-01-12T16:01:50.952Z,5.30
2023-01-12T16:07:12.512Z,4.22
2023-01-12T16:09:45.675Z,4.17
2023-01-12T16:12:15.021Z,5.93
2023-01-12T16:14:45.012Z,6.13
2023-01-12T16:18:06.764Z,4.57
2023-01-12T16:20:36.191Z,4.45
2023-01-12T16:23:05.204Z,5.93
2023-01-12T16:25:37.580Z,4.67
2023-01-12T16:28:07.447Z,3.08
2023-01-12T16:35:35.287Z,3.80
2023-01-12T16:38:55.886Z,5.40
2023-01-12T16:46:19.527Z,6.00
2023-01-12T16:48:49.046Z,7.80
2023-01-12T16:51:19.932Z,10.07
2023-01-12T16:53:49.335Z,10.38
2023-01-12T17:00:52.309Z,8.07
2023-01-12T17:03:23.047Z,6.03
2023-01-12T17:05:52.956Z,5.22
2023-01-12T17:08:22.156Z,7.20
2023-01-12T17:10:52.336Z,5.90
2023-01-12T17:13:21.551Z,4.25
2023-01-12T17:15:50.923Z,4.93
2023-01-12T17:18:20.800Z,4.22
2023-01-12T17:21:00.041Z,4.78
2023-01-12T17:23:29.730Z,5.30
2023-01-12T17:30:52.745Z,4.82
2023-01-12T17:33:22.573Z,4.20
2023-01-12T17:38:23.118Z,4.22
2023-01-12T17:40:52.219Z,4.85
2023-01-12T17:43:20.791Z,2.95
2023-01-12T17:45:50.011Z,4.03
2023-01-12T17:48:20.057Z,3.43
2023-01-12T17:50:49.586Z,3.80
2023-01-12T17:53:20.927Z,4.78
2023-01-12T17:56:40.341Z,4.75
2023-01-12T17:59:13.701Z,3.63
2023-01-12T18:01:43.065Z,4.25
2023-01-12T18:04:13.074Z,3.47
2023-01-12T18:06:42.260Z,3.25
2023-01-12T18:09:14.022Z,3.72
2023-01-12T18:11:43.286Z,4.20
2023-01-12T18:14:13.013Z,3.55
2023-01-12T18:16:42.461Z,3.33
2023-01-12T18:19:15.032Z,3.70
2023-01-12T18:21:46.775Z,3.75
2023-01-12T18:29:16.987Z,3.63
2023-01-12T18:31:53.763Z,3.53
2023-01-12T18:34:28.572Z,3.30
2023-01-12T18:37:02.533Z,4.22
2023-01-12T18:39:36.191Z,3.30
2023-01-12T18:42:28.249Z,3.33
2023-01-12T18:45:05.193Z,3.58
2023-01-12T18:55:32.292Z,3.50
2023-01-12T19:02:52.787Z,3.93
2023-01-12T19:05:26.437Z,6.43
2023-01-12T19:28:45.316Z,4.28
2023-01-12T19:37:21.622Z,5.40
2023-01-12T19:45:59.587Z,4.40
2023-01-12T19:48:32.899Z,4.40
2023-01-12T19:59:48.371Z,4.55
2023-01-12T20:13:20.486Z,3.70
2023-01-12T20:17:08.447Z,4.50
2023-01-12T20:19:39.436Z,4.60
2023-01-12T20:22:33.724Z,4.10
2023-01-12T20:25:03.631Z,4.28
2023-01-12T20:27:33.881Z,4.00
2023-01-12T20:30:03.954Z,3.60
2023-01-12T20:36:41.432Z,3.63
2023-01-12T20:39:12.393Z,4.18
2023-01-12T20:41:42.976Z,3.78
2023-01-12T20:44:37.275Z,3.70
2023-01-12T20:47:06.808Z,3.63
2023-01-12T20:50:31.697Z,3.78
2023-01-12T20:53:02.338Z,4.00
2023-01-12T20:59:44.834Z,6.45
2023-01-12T21:21:56.189Z,3.33
2023-01-12T21:24:26.588Z,3.80
2023-01-12T21:26:56.693Z,4.10
2023-01-12T21:29:26.433Z,4.47
2023-01-12T21:31:55.700Z,5.18
2023-01-12T21:34:25.126Z,4.25
2023-01-12T21:36:55.603Z,5.90
2023-01-12T21:39:25.108Z,7.97
2023-01-12T21:42:11.778Z,4.80
2023-01-12T21:44:42.222Z,5.57
2023-01-12T21:47:11.319Z,4.60
2023-01-12T21:49:40.740Z,4.85
2023-01-12T21:52:11.300Z,4.28
2023-01-12T21:54:40.736Z,6.22
2023-01-12T21:57:09.760Z,4.43
2023-01-12T21:59:39.221Z,4.70
2023-01-12T22:02:10.692Z,4.55
2023-01-12T22:04:40.461Z,4.68
2023-01-12T22:07:11.031Z,4.30
2023-01-12T22:09:40.521Z,4.78
2023-01-12T22:12:09.831Z,4.97
2023-01-12T22:14:39.384Z,5.50
2023-01-12T22:17:12.666Z,4.57
2023-01-12T22:19:42.049Z,5.10
2023-01-12T22:22:12.522Z,4.82
2023-01-12T22:29:32.947Z,4.20
2023-01-12T22:32:03.209Z,4.15
2023-01-12T22:34:32.256Z,4.40
2023-01-12T22:37:01.657Z,4.20
2023-01-12T22:39:32.162Z,4.13
2023-01-12T22:42:01.574Z,4.05
2023-01-12T22:44:30.692Z,4.55
2023-01-12T22:47:00.025Z,4.03
2023-01-12T22:49:29.724Z,4.22
2023-01-12T22:51:59.136Z,4.10
2023-01-12T22:54:28.227Z,6.38
2023-01-12T22:56:59.891Z,4.63
2023-01-12T22:59:29.128Z,4.45
2023-01-12T23:02:18.771Z,4.00
2023-01-12T23:04:47.979Z,4.37
2023-01-12T23:07:19.449Z,4.07
2023-01-12T23:09:48.620Z,3.70
2023-01-12T23:12:19.692Z,4.13
2023-01-12T23:14:48.807Z,4.68
2023-01-12T23:17:18.428Z,4.00
2023-01-12T23:19:47.608Z,4.53
2023-01-12T23:22:16.996Z,5.97
2023-01-12T23:24:46.134Z,3.72
2023-01-12T23:27:15.784Z,4.25
2023-01-12T23:29:48.643Z,4.55
2023-01-12T23:32:18.205Z,4.82
2023-01-12T23:34:47.304Z,4.50
2023-01-12T23:37:16.755Z,3.90
2023-01-12T23:39:45.866Z,3.78
2023-01-12T23:42:15.265Z,4.10
2023-01-12T23:44:45.273Z,5.25
2023-01-12T23:49:49.129Z,3.42
2023-01-12T23:52:18.495Z,3.37
2023-01-12T23:54:47.731Z,4.05
2023-01-12T23:57:17.056Z,3.80
2023-01-12T23:59:46.153Z,3.35
